createdAt,value
2022-09-28T00:01:23.024Z,13.20
2022-09-28T00:03:52.909Z,11.00
2022-09-28T00:06:23.400Z,10.60
2022-09-28T00:08:50.458Z,10.20
2022-09-28T00:11:19.209Z,9.80
2022-09-28T00:13:52.979Z,9.00
2022-09-28T00:16:24.526Z,9.50
2022-09-28T00:18:52.261Z,10.70
2022-09-28T00:21:34.472Z,11.20
2022-09-28T00:24:12.482Z,9.70
2022-09-28T00:26:43.408Z,9.50
2022-09-28T00:29:34.789Z,9.90
2022-09-28T00:32:05.160Z,9.60
2022-09-28T00:34:40.638Z,8.70
2022-09-28T00:37:08.987Z,7.80
2022-09-28T00:39:38.167Z,9.10
2022-09-28T00:42:42.827Z,7.40
2022-09-28T00:45:09.993Z,7.20
2022-09-28T00:47:54.603Z,7.80
2022-09-28T00:50:30.921Z,9.30
2022-09-28T00:53:24.416Z,9.30
2022-09-28T00:56:03.716Z,9.30
2022-09-28T00:58:45.659Z,9.50
2022-09-28T01:01:13.125Z,9.70
2022-09-28T01:03:45.206Z,7.60
2022-09-28T01:06:23.241Z,8.80
2022-09-28T01:08:56.162Z,7.90
2022-09-28T01:11:22.680Z,9.10
2022-09-28T01:13:52.140Z,8.80
2022-09-28T01:16:43.618Z,9.40
2022-09-28T01:19:42.627Z,9.80
2022-09-28T01:22:45.652Z,8.40
2022-09-28T01:25:50.901Z,8.00
2022-09-28T01:28:28.020Z,8.60
2022-09-28T01:31:09.659Z,7.90
2022-09-28T01:33:47.093Z,8.50
2022-09-28T01:36:22.314Z,9.10
2022-09-28T01:38:56.225Z,8.90
2022-09-28T01:41:26.950Z,8.00
2022-09-28T01:44:02.969Z,8.10
2022-09-28T01:46:42.087Z,8.20
2022-09-28T01:49:17.399Z,8.40
2022-09-28T01:51:55.413Z,8.90
2022-09-28T01:54:50.241Z,8.10
2022-09-28T01:57:40.908Z,7.00
2022-09-28T02:00:11.921Z,7.70
2022-09-28T02:02:49.486Z,9.80
2022-09-28T02:05:22.313Z,9.40
2022-09-28T02:08:02.244Z,8.40
2022-09-28T02:13:33.812Z,8.50
2022-09-28T02:16:16.257Z,9.10
2022-09-28T02:18:43.949Z,8.60
2022-09-28T02:21:22.839Z,7.30
2022-09-28T02:23:57.372Z,7.20
2022-09-28T02:26:32.361Z,7.70
2022-09-28T02:28:59.319Z,10.20
2022-09-28T02:31:27.984Z,8.40
2022-09-28T02:33:57.328Z,7.80
2022-09-28T02:36:27.422Z,6.70
2022-09-28T02:38:55.114Z,7.30
2022-09-28T02:41:51.363Z,7.90
2022-09-28T02:45:14.152Z,9.60
2022-09-28T02:48:12.924Z,11.70
2022-09-28T02:50:57.497Z,11.40
2022-09-28T02:53:45.630Z,11.70
2022-09-28T02:56:50.035Z,9.50
2022-09-28T02:59:50.491Z,13.30
2022-09-28T03:02:34.881Z,13.50
2022-09-28T03:05:18.266Z,10.00
2022-09-28T03:08:11.946Z,12.30
2022-09-28T03:10:51.903Z,15.90
2022-09-28T03:13:18.763Z,11.80
2022-09-28T03:15:48.521Z,12.50
2022-09-28T03:18:15.513Z,11.60
2022-09-28T03:20:41.956Z,13.30
2022-09-28T03:23:25.275Z,12.90
2022-09-28T03:25:52.194Z,12.00
2022-09-28T03:28:18.730Z,14.30
2022-09-28T03:30:45.359Z,12.10
2022-09-28T03:33:11.880Z,11.40
2022-09-28T03:35:38.498Z,12.40
2022-09-28T03:38:05.006Z,12.50
2022-09-28T03:40:31.611Z,17.50
2022-09-28T03:43:00.126Z,11.90
2022-09-28T03:45:26.631Z,13.50
2022-09-28T03:47:53.237Z,13.00
2022-09-28T03:50:19.796Z,16.70
2022-09-28T03:52:46.309Z,15.80
2022-09-28T03:55:12.840Z,11.40
2022-09-28T03:57:39.286Z,12.70
2022-09-28T04:00:07.046Z,13.90
2022-09-28T04:02:34.935Z,13.30
2022-09-28T04:05:02.424Z,14.90
2022-09-28T04:07:31.045Z,14.20
2022-09-28T04:09:58.217Z,13.10
2022-09-28T04:12:24.775Z,13.80
2022-09-28T04:14:51.268Z,14.90
2022-09-28T04:17:17.766Z,14.20
2022-09-28T04:19:44.212Z,13.50
2022-09-28T04:22:10.672Z,15.00
2022-09-28T04:24:37.346Z,13.10
2022-09-28T04:27:22.474Z,14.00
2022-09-28T04:29:49.075Z,12.40
2022-09-28T04:32:15.650Z,12.90
2022-09-28T04:34:44.336Z,13.30
2022-09-28T04:37:11.373Z,14.00
2022-09-28T04:39:37.968Z,14.70
2022-09-28T04:42:04.615Z,13.40
2022-09-28T04:44:31.254Z,14.30
2022-09-28T04:46:59.731Z,13.20
2022-09-28T04:49:29.501Z,12.90
2022-09-28T04:51:55.974Z,14.20
2022-09-28T04:54:22.523Z,11.60
2022-09-28T04:56:49.109Z,11.10
2022-09-28T04:59:15.747Z,13.40
2022-09-28T05:01:42.432Z,15.30
2022-09-28T05:04:08.929Z,14.00
2022-09-28T05:06:35.374Z,12.40
2022-09-28T05:09:01.900Z,13.60
2022-09-28T05:11:28.401Z,15.40
2022-09-28T05:13:55.057Z,14.10
2022-09-28T05:16:21.937Z,12.20
2022-09-28T05:18:48.453Z,14.50
2022-09-28T05:21:16.025Z,12.40
2022-09-28T05:23:47.575Z,14.50
2022-09-28T05:26:14.763Z,12.30
2022-09-28T05:28:41.302Z,14.00
2022-09-28T05:31:08.165Z,14.50
2022-09-28T05:33:34.816Z,13.10
2022-09-28T05:36:02.058Z,13.30
2022-09-28T05:38:30.430Z,12.80
2022-09-28T05:40:57.914Z,10.60
2022-09-28T05:43:24.791Z,11.30
2022-09-28T05:45:55.258Z,11.80
2022-09-28T05:48:22.650Z,15.00
2022-09-28T05:50:52.873Z,16.60
2022-09-28T05:53:20.000Z,13.70
2022-09-28T05:55:47.773Z,14.60
2022-09-28T05:58:14.657Z,13.10
2022-09-28T06:00:41.374Z,14.70
2022-09-28T06:03:12.143Z,11.90
2022-09-28T06:05:39.939Z,12.20
2022-09-28T06:08:10.269Z,14.60
2022-09-28T06:10:36.781Z,11.30
2022-09-28T06:13:03.245Z,11.50
2022-09-28T06:15:33.702Z,12.00
2022-09-28T06:18:15.084Z,11.20
2022-09-28T06:20:43.064Z,12.20
2022-09-28T06:23:13.732Z,13.20
2022-09-28T06:25:40.587Z,10.70
2022-09-28T06:28:11.878Z,11.40
2022-09-28T06:30:40.093Z,13.50
2022-09-28T06:33:11.318Z,15.40
2022-09-28T06:35:37.827Z,15.30
2022-09-28T06:38:04.769Z,14.10
2022-09-28T06:40:32.066Z,12.60
2022-09-28T06:42:59.782Z,13.10
2022-09-28T06:45:29.966Z,11.90
2022-09-28T06:47:59.601Z,11.50
2022-09-28T06:50:32.359Z,17.10
2022-09-28T06:53:00.435Z,14.30
2022-09-28T06:55:28.501Z,12.50
2022-09-28T06:58:04.577Z,10.50
2022-09-28T07:00:36.423Z,14.00
2022-09-28T07:03:07.476Z,10.10
2022-09-28T07:05:36.960Z,12.00
2022-09-28T07:08:06.304Z,16.00
2022-09-28T07:10:33.452Z,12.30
2022-09-28T07:13:04.781Z,14.00
2022-09-28T07:15:32.733Z,12.00
2022-09-28T07:18:05.541Z,9.80
2022-09-28T07:20:46.345Z,10.80
2022-09-28T07:23:19.961Z,11.00
2022-09-28T07:25:48.184Z,11.40
2022-09-28T07:28:17.753Z,11.00
2022-09-28T07:30:44.767Z,10.80
2022-09-28T07:33:15.040Z,11.80
2022-09-28T07:35:42.944Z,10.90
2022-09-28T07:38:11.383Z,14.30
2022-09-28T07:40:57.023Z,10.70
2022-09-28T07:43:23.681Z,9.00
2022-09-28T07:45:54.046Z,8.20
2022-09-28T07:48:21.943Z,9.40
2022-09-28T07:50:52.464Z,10.40
2022-09-28T07:53:21.757Z,10.10
2022-09-28T07:56:05.673Z,10.00
2022-09-28T07:58:33.126Z,10.30
2022-09-28T08:01:06.148Z,12.60
2022-09-28T08:03:33.110Z,10.10
2022-09-28T08:06:01.921Z,7.30
2022-09-28T08:08:30.108Z,11.90
2022-09-28T08:10:59.354Z,8.80
2022-09-28T08:13:27.155Z,8.20
2022-09-28T08:15:54.704Z,9.10
2022-09-28T08:18:21.412Z,9.60
2022-09-28T08:21:06.884Z,7.90
2022-09-28T08:23:33.359Z,5.90
2022-09-28T08:25:59.852Z,8.00
2022-09-28T08:28:26.640Z,10.10
2022-09-28T08:30:54.307Z,7.50
2022-09-28T08:33:21.711Z,8.30
2022-09-28T08:35:56.541Z,6.70
2022-09-28T08:38:24.615Z,8.30
2022-09-28T08:41:28.844Z,7.60
2022-09-28T08:44:13.798Z,7.70
2022-09-28T08:46:47.893Z,7.80
2022-09-28T08:49:34.979Z,9.20
2022-09-28T08:52:20.603Z,8.90
2022-09-28T08:55:07.186Z,7.80
2022-09-28T08:58:15.007Z,6.20
2022-09-28T09:00:51.215Z,7.80
2022-09-28T09:03:23.885Z,6.30
2022-09-28T09:06:30.194Z,6.40
2022-09-28T09:09:15.381Z,6.10
2022-09-28T09:12:04.647Z,6.20
2022-09-28T09:15:28.463Z,8.60
2022-09-28T09:18:28.491Z,7.30
2022-09-28T09:21:13.909Z,7.50
2022-09-28T09:23:56.010Z,6.40
2022-09-28T09:26:39.386Z,5.50
2022-09-28T09:29:33.379Z,5.10
2022-09-28T09:32:36.253Z,6.30
2022-09-28T09:35:44.189Z,5.80
2022-09-28T09:38:56.161Z,6.20
2022-09-28T09:41:43.309Z,11.60
2022-09-28T09:44:39.217Z,6.60
2022-09-28T09:47:14.835Z,4.50
2022-09-28T09:49:56.537Z,5.00
2022-09-28T09:52:46.444Z,4.80
2022-09-28T09:55:30.310Z,4.00
2022-09-28T09:58:29.850Z,3.10
2022-09-28T10:01:07.773Z,3.50
2022-09-28T10:03:42.314Z,3.20
2022-09-28T10:06:20.197Z,4.00
2022-09-28T10:09:03.925Z,4.10
2022-09-28T10:11:42.218Z,2.70
2022-09-28T10:14:16.998Z,3.60
2022-09-28T10:16:48.038Z,3.30
2022-09-28T10:19:18.503Z,3.10
2022-09-28T10:21:50.312Z,5.40
2022-09-28T10:24:45.620Z,3.00
2022-09-28T10:27:21.096Z,3.50
2022-09-28T10:30:00.702Z,3.60
2022-09-28T10:32:38.604Z,3.30
2022-09-28T10:35:27.132Z,3.30
2022-09-28T10:38:14.365Z,3.20
2022-09-28T10:40:45.494Z,3.70
2022-09-28T10:43:33.550Z,4.30
2022-09-28T10:46:09.452Z,2.80
2022-09-28T10:49:00.841Z,2.50
2022-09-28T10:51:51.743Z,1.80
2022-09-28T10:54:25.610Z,3.40
2022-09-28T10:56:55.305Z,3.00
2022-09-28T10:59:40.084Z,3.30
2022-09-28T11:02:36.229Z,3.00
2022-09-28T11:05:07.137Z,3.00
2022-09-28T11:07:46.527Z,2.50
2022-09-28T11:10:29.661Z,4.60
2022-09-28T11:12:57.689Z,2.70
2022-09-28T11:15:32.105Z,4.40
2022-09-28T11:18:31.480Z,3.00
2022-09-28T11:21:17.890Z,3.70
2022-09-28T11:24:06.429Z,3.60
2022-09-28T11:26:40.763Z,2.60
2022-09-28T11:29:20.935Z,3.50
2022-09-28T11:31:47.943Z,3.30
2022-09-28T11:34:36.463Z,4.60
2022-09-28T11:37:37.970Z,3.10
2022-09-28T11:40:33.839Z,3.30
2022-09-28T11:43:41.395Z,11.20
2022-09-28T11:46:40.039Z,4.10
2022-09-28T11:49:33.389Z,3.30
2022-09-28T11:52:13.301Z,3.40
2022-09-28T11:55:01.250Z,2.90
2022-09-28T11:57:36.684Z,4.40
2022-09-28T12:00:15.802Z,3.90
2022-09-28T12:03:07.138Z,2.70
2022-09-28T12:05:41.697Z,4.80
2022-09-28T12:08:30.367Z,4.90
2022-09-28T12:11:09.844Z,3.90
2022-09-28T12:13:47.786Z,5.90
2022-09-28T12:19:32.134Z,4.70
2022-09-28T12:22:13.736Z,5.20
2022-09-28T12:24:46.042Z,2.80
2022-09-28T12:27:40.071Z,2.40
2022-09-28T12:30:19.849Z,3.10
2022-09-28T12:33:06.819Z,3.00
2022-09-28T12:35:50.723Z,2.40
2022-09-28T12:39:18.173Z,3.30
2022-09-28T12:42:35.306Z,3.90
2022-09-28T12:45:21.934Z,2.80
2022-09-28T12:48:23.754Z,2.40
2022-09-28T12:51:22.803Z,2.60
2022-09-28T12:54:25.217Z,3.60
2022-09-28T12:57:29.866Z,4.60
2022-09-28T13:00:08.431Z,3.70
2022-09-28T13:03:19.296Z,2.70
2022-09-28T13:06:40.030Z,3.90
2022-09-28T13:09:22.678Z,3.70
2022-09-28T13:12:24.828Z,4.20
2022-09-28T13:15:15.773Z,3.60
2022-09-28T13:17:53.390Z,3.00
2022-09-28T13:20:57.111Z,4.20
2022-09-28T13:23:45.248Z,3.30
2022-09-28T13:26:37.863Z,4.30
2022-09-28T13:29:16.686Z,3.60
2022-09-28T13:31:53.751Z,3.40
2022-09-28T13:34:26.308Z,3.30
2022-09-28T13:37:16.807Z,3.30
2022-09-28T13:39:46.249Z,3.10
2022-09-28T13:42:27.165Z,3.40
2022-09-28T13:45:32.799Z,3.90
2022-09-28T13:48:17.323Z,3.80
2022-09-28T13:51:06.928Z,4.30
2022-09-28T13:54:15.778Z,4.00
2022-09-28T13:57:18.342Z,3.90
2022-09-28T14:00:10.722Z,3.10
2022-09-28T14:02:41.119Z,3.10
2022-09-28T14:05:22.561Z,3.40
2022-09-28T14:08:19.600Z,3.80
2022-09-28T14:11:17.212Z,3.30
2022-09-28T14:13:43.957Z,4.40
2022-09-28T14:16:31.047Z,4.00
2022-09-28T14:19:26.647Z,6.90
2022-09-28T14:22:09.471Z,7.00
2022-09-28T14:25:27.584Z,8.10
2022-09-28T14:28:18.955Z,8.00
2022-09-28T14:30:54.405Z,6.80
2022-09-28T14:33:20.782Z,7.50
2022-09-28T14:36:03.934Z,8.10
2022-09-28T14:38:53.440Z,11.70
2022-09-28T14:41:34.422Z,14.30
2022-09-28T14:44:10.738Z,12.60
2022-09-28T14:46:46.135Z,12.10
2022-09-28T14:49:19.623Z,12.10
2022-09-28T14:52:02.601Z,14.70
2022-09-28T14:54:52.475Z,13.70
2022-09-28T14:57:25.474Z,16.10
2022-09-28T14:59:52.181Z,18.10
2022-09-28T15:02:32.281Z,17.90
2022-09-28T15:05:23.870Z,19.10
2022-09-28T15:07:53.468Z,21.00
2022-09-28T15:10:31.943Z,16.40
2022-09-28T15:13:06.744Z,18.10
2022-09-28T15:15:38.716Z,21.60
2022-09-28T15:18:51.377Z,24.90
2022-09-28T15:21:18.912Z,23.10
2022-09-28T15:23:46.823Z,21.90
2022-09-28T15:26:28.445Z,22.30
2022-09-28T15:28:55.900Z,19.90
2022-09-28T15:31:26.723Z,20.30
2022-09-28T15:34:12.365Z,21.30
2022-09-28T15:36:43.032Z,17.00
2022-09-28T15:39:17.849Z,19.30
2022-09-28T15:41:47.601Z,16.90
2022-09-28T15:44:29.420Z,16.80
2022-09-28T15:47:19.216Z,18.30
2022-09-28T15:50:21.318Z,21.00
2022-09-28T15:53:01.105Z,29.80
2022-09-28T15:55:36.968Z,30.20
2022-09-28T15:58:20.217Z,24.10
2022-09-28T16:01:12.129Z,16.10
2022-09-28T16:03:38.685Z,13.10
2022-09-28T16:06:09.545Z,14.50
2022-09-28T16:08:36.027Z,17.70
2022-09-28T16:11:24.365Z,20.20
2022-09-28T16:14:07.945Z,23.10
2022-09-28T16:16:42.168Z,18.50
2022-09-28T16:19:38.249Z,21.40
2022-09-28T16:22:19.980Z,25.20
2022-09-28T16:24:58.095Z,22.30
2022-09-28T16:27:38.898Z,24.40
2022-09-28T16:30:59.427Z,25.30
2022-09-28T16:33:39.592Z,18.60
2022-09-28T16:36:14.258Z,19.80
2022-09-28T16:38:44.985Z,22.30
2022-09-28T16:41:13.788Z,23.60
2022-09-28T16:43:40.574Z,22.60
2022-09-28T16:46:15.954Z,17.90
2022-09-28T16:48:48.679Z,14.00
2022-09-28T16:51:21.070Z,12.90
2022-09-28T16:54:06.891Z,14.30
2022-09-28T16:56:36.198Z,13.30
2022-09-28T16:59:03.829Z,14.60
2022-09-28T17:01:31.342Z,14.30
2022-09-28T17:03:57.922Z,12.50
2022-09-28T17:06:25.323Z,14.80
2022-09-28T17:08:52.481Z,16.30
2022-09-28T17:11:24.587Z,18.90
2022-09-28T17:13:52.147Z,15.80
2022-09-28T17:16:36.803Z,17.20
2022-09-28T17:19:24.099Z,16.20
2022-09-28T17:21:52.489Z,16.20
2022-09-28T17:24:19.830Z,16.30
2022-09-28T17:26:50.883Z,13.00
2022-09-28T17:29:18.631Z,14.90
2022-09-28T17:31:46.813Z,15.40
2022-09-28T17:34:16.248Z,14.70
2022-09-28T17:36:44.197Z,14.30
2022-09-28T17:39:14.648Z,13.10
2022-09-28T17:41:41.231Z,12.80
2022-09-28T17:44:08.126Z,16.20
2022-09-28T17:46:39.662Z,14.00
2022-09-28T17:49:11.504Z,15.40
2022-09-28T17:51:38.629Z,12.20
2022-09-28T17:54:07.995Z,12.20
2022-09-28T17:56:35.325Z,15.00
2022-09-28T17:59:10.186Z,13.80
2022-09-28T18:01:39.836Z,13.70
2022-09-28T18:04:09.438Z,13.30
2022-09-28T18:06:39.314Z,11.60
2022-09-28T18:09:05.848Z,17.20
2022-09-28T18:11:33.535Z,16.10
2022-09-28T18:14:00.599Z,16.30
2022-09-28T18:16:28.718Z,16.90
2022-09-28T18:18:55.431Z,16.50
2022-09-28T18:21:21.987Z,17.40
2022-09-28T18:23:48.511Z,13.70
2022-09-28T18:26:16.785Z,14.20
2022-09-28T18:28:43.383Z,15.00
2022-09-28T18:31:13.222Z,14.50
2022-09-28T18:33:40.812Z,15.60
2022-09-28T18:36:08.397Z,16.40
2022-09-28T18:38:36.333Z,17.90
2022-09-28T18:41:14.416Z,20.10
2022-09-28T18:43:42.717Z,20.00
2022-09-28T18:46:11.386Z,19.60
2022-09-28T18:48:40.422Z,18.00
2022-09-28T18:51:12.247Z,16.00
2022-09-28T18:53:40.242Z,17.40
2022-09-28T18:56:18.188Z,16.90
2022-09-28T18:58:46.914Z,17.40
2022-09-28T19:01:33.508Z,16.70
2022-09-28T19:04:06.875Z,15.30
2022-09-28T19:06:36.986Z,19.20
2022-09-28T19:09:03.983Z,23.40
2022-09-28T19:11:30.438Z,23.50
2022-09-28T19:13:56.985Z,25.70
2022-09-28T19:16:30.834Z,17.30
2022-09-28T19:19:00.941Z,20.20
2022-09-28T19:21:27.527Z,17.00
2022-09-28T19:23:55.627Z,17.20
2022-09-28T19:26:26.177Z,17.10
2022-09-28T19:28:54.108Z,17.40
2022-09-28T19:31:22.895Z,16.90
2022-09-28T19:33:50.028Z,14.90
2022-09-28T19:36:21.816Z,14.70
2022-09-28T19:38:48.297Z,17.40
2022-09-28T19:41:44.841Z,17.60
2022-09-28T19:44:27.747Z,12.30
2022-09-28T19:46:58.491Z,11.70
2022-09-28T19:49:27.879Z,11.00
2022-09-28T19:52:12.033Z,10.60
2022-09-28T19:54:39.667Z,11.10
2022-09-28T19:57:08.527Z,10.70
2022-09-28T19:59:37.431Z,10.20
2022-09-28T20:02:06.632Z,10.40
2022-09-28T20:04:33.253Z,11.10
2022-09-28T20:06:59.998Z,11.50
2022-09-28T20:09:26.428Z,13.00
2022-09-28T20:11:53.202Z,12.40
2022-09-28T20:14:20.163Z,12.50
2022-09-28T20:16:47.993Z,10.20
2022-09-28T20:19:15.009Z,13.80
2022-09-28T20:21:41.553Z,12.80
2022-09-28T20:24:10.243Z,17.10
2022-09-28T20:26:37.833Z,15.30
2022-09-28T20:29:07.341Z,13.80
2022-09-28T20:31:38.860Z,13.00
2022-09-28T20:34:06.959Z,12.30
2022-09-28T20:36:34.189Z,13.60
2022-09-28T20:39:02.294Z,12.60
2022-09-28T20:41:36.790Z,14.50
2022-09-28T20:44:06.653Z,13.00
2022-09-28T20:46:37.509Z,11.90
2022-09-28T20:49:05.594Z,12.50
2022-09-28T20:51:32.733Z,11.00
2022-09-28T20:54:00.115Z,10.50
2022-09-28T20:56:31.402Z,10.40
2022-09-28T20:58:57.995Z,11.40
2022-09-28T21:01:30.525Z,10.80
2022-09-28T21:04:02.742Z,10.60
2022-09-28T21:06:36.564Z,15.10
2022-09-28T21:09:05.343Z,14.30
2022-09-28T21:11:33.047Z,11.90
2022-09-28T21:14:02.400Z,13.90
2022-09-28T21:16:32.326Z,11.20
2022-09-28T21:18:59.253Z,10.50
2022-09-28T21:21:26.800Z,11.30
2022-09-28T21:23:57.496Z,12.00
2022-09-28T21:26:27.729Z,10.40
2022-09-28T21:29:10.272Z,11.40
2022-09-28T21:31:45.509Z,12.10
2022-09-28T21:34:20.610Z,13.60
2022-09-28T21:36:51.118Z,11.00
2022-09-28T21:39:19.424Z,12.30
2022-09-28T21:41:46.346Z,12.40
2022-09-28T21:44:12.931Z,13.30
2022-09-28T21:46:39.714Z,11.60
2022-09-28T21:49:08.440Z,13.60
2022-09-28T21:51:35.949Z,12.00
2022-09-28T21:54:02.466Z,10.50
2022-09-28T21:56:28.987Z,11.50
2022-09-28T21:58:55.459Z,12.30
2022-09-28T22:01:25.578Z,16.40
2022-09-28T22:03:56.770Z,15.10
2022-09-28T22:06:29.618Z,19.70
2022-09-28T22:08:57.034Z,16.10
2022-09-28T22:11:28.719Z,12.30
2022-09-28T22:13:59.440Z,13.20
2022-09-28T22:16:29.946Z,12.00
2022-09-28T22:18:58.327Z,10.40
2022-09-28T22:21:32.599Z,10.10
2022-09-28T22:24:06.465Z,11.20
2022-09-28T22:26:35.803Z,11.50
2022-09-28T22:29:06.579Z,11.30
2022-09-28T22:31:40.105Z,13.40
2022-09-28T22:34:07.936Z,11.40
2022-09-28T22:36:35.012Z,10.30
2022-09-28T22:39:01.625Z,11.40
2022-09-28T22:41:28.412Z,11.40
2022-09-28T22:43:55.437Z,9.90
2022-09-28T22:46:25.784Z,9.50
2022-09-28T22:48:55.444Z,8.60
2022-09-28T22:51:24.117Z,10.70
2022-09-28T22:53:50.744Z,9.40
2022-09-28T22:56:18.997Z,12.60
2022-09-28T22:58:46.763Z,11.60
2022-09-28T23:01:18.611Z,12.10
2022-09-28T23:03:45.871Z,12.50
2022-09-28T23:06:16.579Z,9.40
2022-09-28T23:08:45.273Z,10.40
2022-09-28T23:11:11.808Z,12.10
2022-09-28T23:13:38.515Z,15.10
2022-09-28T23:16:09.209Z,13.20
2022-09-28T23:18:40.888Z,13.40
2022-09-28T23:21:16.147Z,12.30
2022-09-28T23:23:44.952Z,12.60
2022-09-28T23:26:21.334Z,11.40
2022-09-28T23:28:48.297Z,13.00
2022-09-28T23:31:30.666Z,13.50
2022-09-28T23:34:04.887Z,11.70
2022-09-28T23:36:32.578Z,12.70
2022-09-28T23:38:59.221Z,11.20
2022-09-28T23:41:25.733Z,11.10
2022-09-28T23:43:52.198Z,10.40
2022-09-28T23:46:20.946Z,12.10
2022-09-28T23:48:48.605Z,11.70
2022-09-28T23:51:15.259Z,13.10
2022-09-28T23:53:41.707Z,12.90
2022-09-28T23:56:08.258Z,14.40
2022-09-28T23:58:34.745Z,15.80
